Página principal
METAR-TAF:

METAR-TAF

Aeroportos :

Kunming, China

latitude: 25-01N, longitude: 102-41E, altura: 1892 m

Observação actual do tempo

O boletim foi feito há 23 minutos, às 02:00 UTC
Vento 19 kt de oes-sudoeste
Temperatura 21°C
Humidade 35%
Pressão 1017 hPa
Visibilidade 10 km ou mais
sem nuvens abaixo de 1500 metros e sem cumulonimbus

METAR: ZPPP 190200Z 25010MPS CAVOK 21/05 Q1017 NOSIG

Hora: 10:23 (02:23 UTC)

Previsão

O boletim foi feito há 7 horas e 20 minutos, às 19:03 UTC
Previsão válida de 19 às 00 UTC a 19 às 24 UTC
Vento 14 kt de sudoeste
Visibilidade 10 km ou mais
Nuvens dispersasa uma altura de 2600 ft
Tornando-se
de 19 às 02 UTC a 19 às 03 UTC
Vento 23 kt de sudoeste com rajadas de 33 kt
Tornando-se
de 19 às 11 UTC a 19 às 12 UTC
Vento 14 kt de sudoeste

TAF: ZPPP 181903Z 1900/1924 23007MPS 9999 SCT026 TX29/1908Z TN15/1923Z BECMG 1902/1903 23012G17MPS BECMG 1911/1912 23007MPS

Observações e previsões do tempo de mais de 4000 aeroportos (mensagens METAR e TAF).

As estações disponíveis são os pontos amarelos e vermelhos sobre o mapa.

Mova o rato sobre o mapa para ver o nome da estação.

Depois clique no ponto para visualizar as observações e previsões meteorológicas.

Para alterar o mapa : clique nos botões verdes com uma cruz preta para aumentar o zoom; no botão verde com uma pitada de zoom; ou nas setas verdes para mapas adjacentes.


METAR-TAF: